createdAt,value
2018-07-03T00:01:28.102Z,6.63
2018-07-03T00:03:56.493Z,8.63
2018-07-03T00:06:24.935Z,3.70
2018-07-03T00:08:53.362Z,3.67
2018-07-03T00:11:21.776Z,4.43
2018-07-03T00:13:50.181Z,3.87
2018-07-03T00:16:23.868Z,6.93
2018-07-03T00:18:52.296Z,7.17
2018-07-03T00:21:20.681Z,11.37
2018-07-03T00:23:49.158Z,3.83
2018-07-03T00:26:17.580Z,9.30
2018-07-03T00:28:46.001Z,9.57
2018-07-03T00:31:14.461Z,6.60
2018-07-03T00:33:42.940Z,5.83
2018-07-03T00:36:11.372Z,6.70
2018-07-03T00:38:39.833Z,4.23
2018-07-03T00:41:08.308Z,4.00
2018-07-03T00:43:36.802Z,4.60
2018-07-03T00:46:05.734Z,4.27
2018-07-03T00:48:34.152Z,4.80
2018-07-03T00:51:02.583Z,4.57
2018-07-03T00:53:30.998Z,5.57
2018-07-03T00:55:59.497Z,5.47
2018-07-03T00:58:27.888Z,5.43
2018-07-03T01:00:56.304Z,8.37
2018-07-03T01:03:24.761Z,6.93
2018-07-03T01:05:53.206Z,4.33
2018-07-03T01:08:21.638Z,4.70
2018-07-03T01:10:50.062Z,9.63
2018-07-03T01:13:18.613Z,3.77
2018-07-03T01:15:47.046Z,4.43
2018-07-03T01:18:15.539Z,4.60
2018-07-03T01:20:44.013Z,4.17
2018-07-03T01:23:12.508Z,3.70
2018-07-03T01:25:40.885Z,5.27
2018-07-03T01:28:09.258Z,4.40
2018-07-03T01:30:37.658Z,7.37
2018-07-03T01:33:06.045Z,5.93
2018-07-03T01:35:34.464Z,5.20
2018-07-03T01:38:02.876Z,5.40
2018-07-03T01:40:31.258Z,4.33
2018-07-03T01:42:59.674Z,4.03
2018-07-03T01:45:28.076Z,5.37
2018-07-03T01:47:56.454Z,5.20
2018-07-03T01:50:24.889Z,4.47
2018-07-03T01:52:53.257Z,6.73
2018-07-03T01:55:21.710Z,7.13
2018-07-03T01:57:50.152Z,6.77
2018-07-03T02:00:18.598Z,6.60
2018-07-03T02:02:46.975Z,6.83
2018-07-03T02:05:15.390Z,4.10
2018-07-03T02:07:43.729Z,6.77
2018-07-03T02:10:12.211Z,9.60
2018-07-03T02:12:40.608Z,6.33
2018-07-03T02:15:09.072Z,6.77
2018-07-03T02:17:37.498Z,4.00
2018-07-03T02:20:05.975Z,5.67
2018-07-03T02:22:34.366Z,5.70
2018-07-03T02:25:02.772Z,6.23
2018-07-03T02:27:31.154Z,5.53
2018-07-03T02:29:59.554Z,12.17
2018-07-03T02:32:28.039Z,8.10
2018-07-03T02:34:56.490Z,7.00
2018-07-03T02:37:24.939Z,8.40
2018-07-03T02:39:53.387Z,8.07
2018-07-03T02:42:21.800Z,6.20
2018-07-03T02:44:50.185Z,5.23
2018-07-03T02:47:18.679Z,7.27
2018-07-03T02:49:47.206Z,8.47
2018-07-03T02:52:15.868Z,9.27
2018-07-03T02:54:44.296Z,9.03
2018-07-03T02:57:12.717Z,7.27
2018-07-03T02:59:41.144Z,7.80
2018-07-03T03:02:09.572Z,7.63
2018-07-03T03:04:38.021Z,8.53
2018-07-03T03:07:06.487Z,12.90
2018-07-03T03:09:34.888Z,7.63
2018-07-03T03:12:03.479Z,10.10
2018-07-03T03:14:31.929Z,10.30
2018-07-03T03:17:00.433Z,10.83
2018-07-03T03:19:28.894Z,8.63
2018-07-03T03:21:57.297Z,10.37
2018-07-03T03:24:25.690Z,6.23
2018-07-03T03:26:54.073Z,7.47
2018-07-03T03:29:22.445Z,9.17
2018-07-03T03:31:50.857Z,5.90
2018-07-03T03:34:19.269Z,9.73
2018-07-03T03:36:47.772Z,11.20
2018-07-03T03:39:16.273Z,10.63
2018-07-03T03:41:44.833Z,12.17
2018-07-03T03:44:13.309Z,6.57
2018-07-03T03:46:41.716Z,6.13
2018-07-03T03:49:10.177Z,11.93
2018-07-03T03:51:38.595Z,7.13
2018-07-03T03:54:07.223Z,6.87
2018-07-03T03:56:35.660Z,11.73
2018-07-03T03:59:03.821Z,12.00
2018-07-03T04:01:32.304Z,9.23
2018-07-03T04:04:00.719Z,5.10
2018-07-03T04:06:29.247Z,8.70
2018-07-03T04:08:57.884Z,9.73
2018-07-03T04:11:26.304Z,4.73
2018-07-03T04:13:54.710Z,9.53
2018-07-03T04:16:23.290Z,7.80
2018-07-03T04:18:51.709Z,8.87
2018-07-03T04:21:20.088Z,5.53
2018-07-03T04:23:48.589Z,5.53
2018-07-03T04:26:17.088Z,6.60
2018-07-03T04:28:45.618Z,12.07
2018-07-03T04:31:14.954Z,8.93
2018-07-03T04:33:43.435Z,11.37
2018-07-03T04:36:11.885Z,10.80
2018-07-03T04:38:40.363Z,7.60
2018-07-03T04:41:08.822Z,7.13
2018-07-03T04:43:37.248Z,8.07
2018-07-03T04:46:06.516Z,7.67
2018-07-03T04:48:34.989Z,7.67
2018-07-03T04:51:04.021Z,8.30
2018-07-03T04:53:32.427Z,12.23
2018-07-03T04:56:00.938Z,11.80
2018-07-03T04:58:29.362Z,16.73
2018-07-03T05:00:57.795Z,16.80
2018-07-03T05:03:26.270Z,15.67
2018-07-03T05:05:54.696Z,16.70
2018-07-03T05:08:23.216Z,14.80
2018-07-03T05:10:51.783Z,12.17
2018-07-03T05:13:20.265Z,9.30
2018-07-03T05:15:48.764Z,12.10
2018-07-03T05:18:17.261Z,11.07
2018-07-03T05:20:45.805Z,7.70
2018-07-03T05:23:14.262Z,11.47
2018-07-03T05:25:42.828Z,9.37
2018-07-03T05:28:11.328Z,7.73
2018-07-03T05:30:39.865Z,7.37
2018-07-03T05:33:08.332Z,7.53
2018-07-03T05:35:43.073Z,9.67
2018-07-03T05:38:11.782Z,7.70
2018-07-03T05:40:40.242Z,9.63
2018-07-03T05:43:08.704Z,7.83
2018-07-03T05:45:37.467Z,9.00
2018-07-03T05:48:06.053Z,7.43
2018-07-03T05:50:34.801Z,11.43
2018-07-03T05:53:03.276Z,11.53
2018-07-03T05:55:31.839Z,8.07
2018-07-03T05:58:00.431Z,10.13
2018-07-03T06:00:28.997Z,14.43
2018-07-03T06:02:57.475Z,10.40
2018-07-03T06:05:25.928Z,15.43
2018-07-03T06:07:54.380Z,13.77
2018-07-03T06:10:22.935Z,11.10
2018-07-03T06:12:51.378Z,12.80
2018-07-03T06:15:19.787Z,13.80
2018-07-03T06:17:48.254Z,14.33
2018-07-03T06:20:16.728Z,15.13
2018-07-03T06:22:45.279Z,12.73
2018-07-03T06:25:13.712Z,13.27
2018-07-03T06:27:42.134Z,6.30
2018-07-03T06:30:10.620Z,5.90
2018-07-03T06:32:39.128Z,8.60
2018-07-03T06:35:07.675Z,8.20
2018-07-03T06:37:36.349Z,7.13
2018-07-03T06:40:05.498Z,4.43
2018-07-03T06:42:34.137Z,6.70
2018-07-03T06:45:03.093Z,7.70
2018-07-03T06:47:31.305Z,9.37
2018-07-03T06:49:59.753Z,5.57
2018-07-03T06:52:28.194Z,4.87
2018-07-03T06:54:56.638Z,7.40
2018-07-03T06:57:25.085Z,4.77
2018-07-03T06:59:53.676Z,4.73
2018-07-03T07:02:21.886Z,6.37
2018-07-03T07:04:50.401Z,6.17
2018-07-03T07:07:18.808Z,6.13
2018-07-03T07:09:46.984Z,10.10
2018-07-03T07:12:15.477Z,6.23
2018-07-03T07:14:44.122Z,5.67
2018-07-03T07:17:12.633Z,4.27
2018-07-03T07:19:41.142Z,7.13
2018-07-03T07:22:09.680Z,8.60
2018-07-03T07:24:38.110Z,6.43
2018-07-03T07:27:06.558Z,4.43
2018-07-03T07:29:35.041Z,6.03
2018-07-03T07:32:03.553Z,4.10
2018-07-03T07:34:31.931Z,3.03
2018-07-03T07:37:00.371Z,8.37
2018-07-03T07:39:28.853Z,6.13
2018-07-03T07:41:57.311Z,4.93
2018-07-03T07:44:25.733Z,9.67
2018-07-03T07:46:54.193Z,4.03
2018-07-03T07:49:22.695Z,3.33
2018-07-03T07:51:51.224Z,3.67
2018-07-03T07:54:19.686Z,4.20
2018-07-03T07:56:48.176Z,3.40
2018-07-03T07:59:16.696Z,3.97
2018-07-03T08:01:45.276Z,7.70
2018-07-03T08:04:13.695Z,3.93
2018-07-03T08:06:42.178Z,5.17
2018-07-03T08:09:10.940Z,3.60
2018-07-03T08:11:39.437Z,2.80
2018-07-03T08:14:07.975Z,2.87
2018-07-03T08:16:36.407Z,2.43
2018-07-03T08:19:04.947Z,3.20
2018-07-03T08:21:33.432Z,2.67
2018-07-03T08:24:01.958Z,7.57
2018-07-03T08:26:30.474Z,4.30
2018-07-03T08:28:58.977Z,7.90
2018-07-03T08:31:27.498Z,3.83
2018-07-03T08:33:56.072Z,3.70
2018-07-03T08:36:24.597Z,7.20
2018-07-03T08:38:53.216Z,3.77
2018-07-03T08:41:21.765Z,4.23
2018-07-03T08:43:50.333Z,2.77
2018-07-03T08:46:18.856Z,4.60
2018-07-03T08:48:47.255Z,6.07
2018-07-03T08:51:15.754Z,4.30
2018-07-03T08:53:44.223Z,4.40
2018-07-03T08:56:12.689Z,4.60
2018-07-03T08:58:41.118Z,5.27
2018-07-03T09:01:09.894Z,4.83
2018-07-03T09:03:38.323Z,5.00
2018-07-03T09:06:06.954Z,3.23
2018-07-03T09:08:35.426Z,2.57
2018-07-03T09:11:03.941Z,7.27
2018-07-03T09:13:32.431Z,2.50
2018-07-03T09:16:00.923Z,3.93
2018-07-03T09:18:29.624Z,4.67
2018-07-03T09:20:58.207Z,3.13
2018-07-03T09:23:26.796Z,4.13
2018-07-03T09:25:55.240Z,2.17
2018-07-03T09:28:23.690Z,7.67
2018-07-03T09:30:53.163Z,6.57
2018-07-03T09:33:21.601Z,1.70
2018-07-03T09:35:50.174Z,6.57
2018-07-03T09:38:18.626Z,3.37
2018-07-03T09:40:47.141Z,2.60
2018-07-03T09:43:15.619Z,2.53
2018-07-03T09:45:44.217Z,4.00
2018-07-03T09:48:12.659Z,3.70
2018-07-03T09:50:41.178Z,1.47
2018-07-03T09:53:09.718Z,1.43
2018-07-03T09:55:38.258Z,3.10
2018-07-03T09:58:06.840Z,2.03
2018-07-03T10:00:40.533Z,2.97
2018-07-03T10:03:09.066Z,2.07
2018-07-03T10:05:37.574Z,1.47
2018-07-03T10:08:06.051Z,1.33
2018-07-03T10:10:34.540Z,1.40
2018-07-03T10:13:03.052Z,4.73
2018-07-03T10:15:31.455Z,1.93
2018-07-03T10:17:59.922Z,2.07
2018-07-03T10:20:28.391Z,3.10
2018-07-03T10:22:56.814Z,2.20
2018-07-03T10:25:25.293Z,3.93
2018-07-03T10:27:53.762Z,3.17
2018-07-03T10:30:22.184Z,1.30
2018-07-03T10:32:50.617Z,3.50
2018-07-03T10:35:19.266Z,1.70
2018-07-03T10:37:47.833Z,2.73
2018-07-03T10:40:16.389Z,2.60
2018-07-03T10:42:44.879Z,3.10
2018-07-03T10:45:13.579Z,2.70
2018-07-03T10:47:42.125Z,2.70
2018-07-03T10:50:10.612Z,2.20
2018-07-03T10:52:39.021Z,2.60
2018-07-03T10:55:07.484Z,5.23
2018-07-03T10:57:35.975Z,2.70
2018-07-03T11:00:05.452Z,2.17
2018-07-03T11:02:33.903Z,5.77
2018-07-03T11:05:02.380Z,2.33
2018-07-03T11:07:30.828Z,6.10
2018-07-03T11:09:59.294Z,2.67
2018-07-03T11:12:27.860Z,2.80
2018-07-03T11:14:56.738Z,1.93
2018-07-03T11:17:25.351Z,3.07
2018-07-03T11:19:54.034Z,2.13
2018-07-03T11:22:22.122Z,4.83
2018-07-03T11:24:50.645Z,2.10
2018-07-03T11:27:19.139Z,2.17
2018-07-03T11:29:47.614Z,2.90
2018-07-03T11:32:16.038Z,2.20
2018-07-03T11:34:44.215Z,2.52
2018-07-03T11:37:12.677Z,2.47
2018-07-03T11:39:41.111Z,4.85
2018-07-03T11:42:09.607Z,4.08
2018-07-03T11:44:38.075Z,3.90
2018-07-03T11:47:06.828Z,5.17
2018-07-03T11:49:35.377Z,4.50
2018-07-03T11:52:04.027Z,4.53
2018-07-03T11:54:32.634Z,2.00
2018-07-03T11:57:01.131Z,2.80
2018-07-03T11:59:29.649Z,4.83
2018-07-03T12:01:58.226Z,3.08
2018-07-03T12:04:26.913Z,2.15
2018-07-03T12:06:57.036Z,4.35
2018-07-03T12:09:26.136Z,1.67
2018-07-03T12:11:54.672Z,3.50
2018-07-03T12:14:23.196Z,3.07
2018-07-03T12:16:51.869Z,2.73
2018-07-03T12:19:20.494Z,4.53
2018-07-03T12:21:48.988Z,9.33
2018-07-03T12:24:17.529Z,1.90
2018-07-03T12:26:46.068Z,2.83
2018-07-03T12:29:14.867Z,1.50
2018-07-03T12:31:43.560Z,5.63
2018-07-03T12:34:13.628Z,6.50
2018-07-03T12:36:42.110Z,2.57
2018-07-03T12:39:11.568Z,3.37
2018-07-03T12:41:40.337Z,5.60
2018-07-03T12:44:09.030Z,6.67
2018-07-03T12:46:37.719Z,3.73
2018-07-03T12:49:06.548Z,5.00
2018-07-03T12:51:35.281Z,1.93
2018-07-03T12:54:04.203Z,4.40
2018-07-03T12:56:32.845Z,3.77
2018-07-03T12:59:01.508Z,3.63
2018-07-03T13:01:30.047Z,3.10
2018-07-03T13:03:58.616Z,4.43
2018-07-03T13:06:27.441Z,7.37
2018-07-03T13:08:56.097Z,3.40
2018-07-03T13:11:24.680Z,3.30
2018-07-03T13:13:53.239Z,3.97
2018-07-03T13:16:21.829Z,2.77
2018-07-03T13:18:50.458Z,3.10
2018-07-03T13:21:19.042Z,3.77
2018-07-03T13:23:47.609Z,2.27
2018-07-03T13:26:16.247Z,5.63
2018-07-03T13:28:44.948Z,5.27
2018-07-03T13:31:14.019Z,2.57
2018-07-03T13:33:42.747Z,5.73
2018-07-03T13:36:11.391Z,2.47
2018-07-03T13:38:40.493Z,1.53
2018-07-03T13:41:09.237Z,2.40
2018-07-03T13:43:37.789Z,1.77
2018-07-03T13:46:06.418Z,7.97
2018-07-03T13:48:35.741Z,2.60
2018-07-03T13:51:04.316Z,1.53
2018-07-03T13:53:32.893Z,4.37
2018-07-03T13:56:01.582Z,2.77
2018-07-03T13:58:30.088Z,2.77
2018-07-03T14:00:58.739Z,1.57
2018-07-03T14:03:27.032Z,2.63
2018-07-03T14:05:55.782Z,6.90
2018-07-03T14:08:24.661Z,5.27
2018-07-03T14:10:53.197Z,1.57
2018-07-03T14:13:21.426Z,4.00
2018-07-03T14:15:49.980Z,3.90
2018-07-03T14:18:22.863Z,2.80
2018-07-03T14:20:51.417Z,5.00
2018-07-03T14:23:20.005Z,3.17
2018-07-03T14:25:48.714Z,1.60
2018-07-03T14:28:17.340Z,7.07
2018-07-03T14:30:45.991Z,5.60
2018-07-03T14:33:14.552Z,1.73
2018-07-03T14:35:43.075Z,4.53
2018-07-03T14:38:11.883Z,3.40
2018-07-03T14:40:40.462Z,5.07
2018-07-03T14:43:09.070Z,5.90
2018-07-03T14:45:37.752Z,1.40
2018-07-03T14:48:07.028Z,2.27
2018-07-03T14:50:35.559Z,9.67
2018-07-03T14:53:04.448Z,3.83
2018-07-03T14:55:33.405Z,1.73
2018-07-03T14:58:02.062Z,2.17
2018-07-03T15:00:30.842Z,2.03
2018-07-03T15:02:59.384Z,2.80
2018-07-03T15:05:27.921Z,1.90
2018-07-03T15:07:56.489Z,6.37
2018-07-03T15:10:26.115Z,3.03
2018-07-03T15:12:55.196Z,5.80
2018-07-03T15:15:23.755Z,2.77
2018-07-03T15:17:52.457Z,3.47
2018-07-03T15:20:21.150Z,3.20
2018-07-03T15:22:49.293Z,6.60
2018-07-03T15:25:17.849Z,1.90
2018-07-03T15:27:46.368Z,3.20
2018-07-03T15:30:18.661Z,2.23
2018-07-03T15:32:47.571Z,3.03
2018-07-03T15:35:16.419Z,2.43
2018-07-03T15:37:45.331Z,4.00
2018-07-03T15:40:13.983Z,3.00
2018-07-03T15:42:42.578Z,3.67
2018-07-03T15:45:13.516Z,2.20
2018-07-03T15:47:42.217Z,3.63
2018-07-03T15:50:12.038Z,2.60
2018-07-03T15:52:40.530Z,2.33
2018-07-03T15:55:09.957Z,6.50
2018-07-03T15:57:38.789Z,2.70
2018-07-03T16:00:09.590Z,3.20
2018-07-03T16:02:38.268Z,2.87
2018-07-03T16:05:19.732Z,4.93
2018-07-03T16:08:32.665Z,2.77
2018-07-03T16:11:01.226Z,4.27
2018-07-03T16:13:29.942Z,2.33
2018-07-03T16:15:58.596Z,2.03
2018-07-03T16:18:27.805Z,4.00
2018-07-03T16:20:56.419Z,3.93
2018-07-03T16:23:25.012Z,2.17
2018-07-03T16:25:53.865Z,3.20
2018-07-03T16:28:22.344Z,2.67
2018-07-03T16:30:51.121Z,5.10
2018-07-03T16:33:19.793Z,3.23
2018-07-03T16:35:48.821Z,1.80
2018-07-03T16:38:17.754Z,7.53
2018-07-03T16:40:46.398Z,2.93
2018-07-03T16:43:15.050Z,2.10
2018-07-03T16:45:43.745Z,2.50
2018-07-03T16:48:12.392Z,3.30
2018-07-03T16:50:41.399Z,3.70
2018-07-03T16:53:09.961Z,5.93
2018-07-03T16:55:39.024Z,3.83
2018-07-03T16:58:07.677Z,4.60
2018-07-03T17:00:36.310Z,3.03
2018-07-03T17:03:05.024Z,4.00
2018-07-03T17:05:33.599Z,3.50
2018-07-03T17:08:02.443Z,2.23
2018-07-03T17:10:31.071Z,2.03
2018-07-03T17:12:59.589Z,3.93
2018-07-03T17:15:28.265Z,6.47
2018-07-03T17:17:56.985Z,2.07
2018-07-03T17:20:25.494Z,5.73
2018-07-03T17:22:54.272Z,2.30
2018-07-03T17:25:22.902Z,3.63
2018-07-03T17:27:51.618Z,8.67
2018-07-03T17:30:20.371Z,4.30
2018-07-03T17:32:49.228Z,3.73
2018-07-03T17:35:17.819Z,3.53
2018-07-03T17:37:46.577Z,2.50
2018-07-03T17:40:26.381Z,3.80
2018-07-03T17:43:35.464Z,3.53
2018-07-03T17:46:06.414Z,5.63
2018-07-03T17:48:35.099Z,5.07
2018-07-03T17:51:03.679Z,2.40
2018-07-03T17:53:32.471Z,2.57
2018-07-03T17:56:01.165Z,5.33
2018-07-03T17:58:29.845Z,4.80
2018-07-03T18:00:58.548Z,2.13
2018-07-03T18:03:27.370Z,3.37
2018-07-03T18:05:55.894Z,3.37
2018-07-03T18:08:24.641Z,8.47
2018-07-03T18:10:53.485Z,3.63
2018-07-03T18:13:22.091Z,4.17
2018-07-03T18:15:50.873Z,6.90
2018-07-03T18:18:19.613Z,10.33
2018-07-03T18:20:48.275Z,3.93
2018-07-03T18:23:17.263Z,3.63
2018-07-03T18:25:45.872Z,3.87
2018-07-03T18:28:14.790Z,2.97
2018-07-03T18:30:43.705Z,3.43
2018-07-03T18:33:12.470Z,6.53
2018-07-03T18:35:41.168Z,2.80
2018-07-03T18:38:09.917Z,4.57
2018-07-03T18:40:44.989Z,3.27
2018-07-03T18:43:13.867Z,3.07
2018-07-03T18:45:42.590Z,2.97
2018-07-03T18:48:11.227Z,4.63
2018-07-03T18:50:40.090Z,6.20
2018-07-03T18:53:09.509Z,4.57
2018-07-03T18:55:38.435Z,4.33
2018-07-03T18:58:07.112Z,6.10
2018-07-03T19:00:36.199Z,5.90
2018-07-03T19:03:05.379Z,5.73
2018-07-03T19:05:34.591Z,6.97
2018-07-03T19:08:03.783Z,9.43
2018-07-03T19:10:32.528Z,10.90
2018-07-03T19:13:01.350Z,6.40
2018-07-03T19:15:30.274Z,9.73
2018-07-03T19:17:59.225Z,9.83
2018-07-03T19:20:28.202Z,8.43
2018-07-03T19:22:57.384Z,12.87
2018-07-03T19:25:26.880Z,10.57
2018-07-03T19:27:56.791Z,8.47
2018-07-03T19:30:26.179Z,6.30
2018-07-03T19:32:55.421Z,7.13
2018-07-03T19:35:24.791Z,10.67
2018-07-03T19:37:54.788Z,9.00
2018-07-03T19:40:24.472Z,7.33
2018-07-03T19:43:32.745Z,9.13
2018-07-03T19:46:02.508Z,7.67
2018-07-03T19:48:31.539Z,9.00
2018-07-03T19:51:00.556Z,7.80
2018-07-03T19:53:29.558Z,8.30
2018-07-03T19:55:59.561Z,7.77
2018-07-03T19:58:28.051Z,7.50
2018-07-03T20:00:57.366Z,9.83
2018-07-03T20:03:26.473Z,8.47
2018-07-03T20:05:55.121Z,9.07
2018-07-03T20:08:23.926Z,9.27
2018-07-03T20:10:53.014Z,7.13
2018-07-03T20:13:22.170Z,7.73
2018-07-03T20:15:51.589Z,8.97
2018-07-03T20:18:21.090Z,9.93
2018-07-03T20:20:50.622Z,11.70
2018-07-03T20:23:20.230Z,7.80
2018-07-03T20:25:49.701Z,9.00
2018-07-03T20:28:19.092Z,8.67
2018-07-03T20:30:48.434Z,10.40
2018-07-03T20:33:17.759Z,9.10
2018-07-03T20:35:46.557Z,10.97
2018-07-03T20:38:15.333Z,10.03
2018-07-03T20:40:49.420Z,9.30
2018-07-03T20:43:18.247Z,11.87
2018-07-03T20:45:46.958Z,8.30
2018-07-03T20:48:15.509Z,9.93
2018-07-03T20:50:44.043Z,8.50
2018-07-03T20:53:12.768Z,8.17
2018-07-03T20:55:41.063Z,10.17
2018-07-03T20:58:09.716Z,12.43
2018-07-03T21:00:39.682Z,8.93
2018-07-03T21:03:08.569Z,9.30
2018-07-03T21:05:37.331Z,9.80
2018-07-03T21:08:06.284Z,9.73
2018-07-03T21:10:34.942Z,10.03
2018-07-03T21:13:03.579Z,11.97
2018-07-03T21:15:32.240Z,9.67
2018-07-03T21:18:00.754Z,10.13
2018-07-03T21:20:29.384Z,9.53
2018-07-03T21:22:58.058Z,12.90
2018-07-03T21:25:26.859Z,10.17
2018-07-03T21:27:55.959Z,9.87
2018-07-03T21:30:25.562Z,12.73
2018-07-03T21:32:54.148Z,9.40
2018-07-03T21:35:22.674Z,9.77
2018-07-03T21:37:51.185Z,10.00
2018-07-03T21:40:19.694Z,9.83
2018-07-03T21:42:48.229Z,9.70
2018-07-03T21:45:16.722Z,9.97
2018-07-03T21:47:45.354Z,10.83
2018-07-03T21:50:13.877Z,16.53
2018-07-03T21:52:42.633Z,11.53
2018-07-03T21:55:11.147Z,11.27
2018-07-03T21:57:39.652Z,10.00
2018-07-03T22:00:08.914Z,11.07
2018-07-03T22:02:37.764Z,11.07
2018-07-03T22:05:06.404Z,12.77
2018-07-03T22:07:34.899Z,11.17
2018-07-03T22:10:03.849Z,10.57
2018-07-03T22:12:32.699Z,11.43
2018-07-03T22:15:01.326Z,10.73
2018-07-03T22:17:29.449Z,10.90
2018-07-03T22:19:57.926Z,15.70
2018-07-03T22:22:26.395Z,12.40
2018-07-03T22:24:54.814Z,10.70
2018-07-03T22:27:24.357Z,11.17
2018-07-03T22:29:52.850Z,13.40
2018-07-03T22:32:21.308Z,10.90
2018-07-03T22:34:49.759Z,12.10
2018-07-03T22:37:18.195Z,14.57
2018-07-03T22:39:46.752Z,12.13
2018-07-03T22:42:15.130Z,12.23
2018-07-03T22:44:43.690Z,18.43
2018-07-03T22:47:12.404Z,14.03
2018-07-03T22:49:41.190Z,12.93
2018-07-03T22:52:09.697Z,11.93
2018-07-03T22:54:38.218Z,11.57
2018-07-03T22:57:06.720Z,14.10
2018-07-03T22:59:35.180Z,14.40
2018-07-03T23:02:03.635Z,12.87
2018-07-03T23:04:32.077Z,15.07
2018-07-03T23:07:00.551Z,14.43
2018-07-03T23:09:29.019Z,13.50
2018-07-03T23:11:57.492Z,13.17
2018-07-03T23:14:25.950Z,12.27
2018-07-03T23:16:54.399Z,12.57
2018-07-03T23:19:22.863Z,11.73
2018-07-03T23:21:50.988Z,13.17
2018-07-03T23:24:19.483Z,11.27
2018-07-03T23:26:48.040Z,15.37
2018-07-03T23:29:16.505Z,12.67
2018-07-03T23:31:45.055Z,13.23
2018-07-03T23:34:13.528Z,13.10
2018-07-03T23:36:42.058Z,12.17
2018-07-03T23:39:11.274Z,13.07
2018-07-03T23:41:39.794Z,13.10
2018-07-03T23:44:08.245Z,13.17
2018-07-03T23:46:48.127Z,13.33
2018-07-03T23:49:27.797Z,12.47
2018-07-03T23:52:07.505Z,18.20
2018-07-03T23:54:47.156Z,13.77
2018-07-03T23:57:20.764Z,12.37
